KNQI/NQI METAR and TAF weather

Enter ICAO airport designator
Station Type Date Time Source
KNQI METAR 2020/04/06 15:56 UTC NOAA

KNQI 061556Z 06006KT 6SM BR OVC006 23/22 A2998 RMK AO2 SLP149 T02330217 PNO $


Station Type Date Time Source
KNQI Decoded METAR 2020/04/06 15:56 UTC NOAA

KINGSVILLE NAS, TX, United States (KNQI) 27-50N 097-81W 15M
Apr 06, 2020 - 11:56 AM EDT / 2020.04.06 1556 UTC
Wind: from the ENE (060 degrees) at 7 MPH (6 KT):0
Visibility: 6 mile(s):0
Sky conditions: overcast
Weather: mist
Temperature: 73.9 F (23.3 C)
Dew Point: 71.1 F (21.7 C)
Relative Humidity: 90%
Pressure (altimeter): 29.98 in. Hg (1015 hPa)
ob: KNQI 061556Z 06006KT 6SM BR OVC006 23/22 A2998 RMK AO2 SLP149 T02330217 PNO
cycle: 16

Station Type Date Time Source
KNQI TAF 2020/04/06 15:59 UTC NOAA

TAF KNQI 0615/0715 06006KT 6000 BR SCT006 OVC012 QNH2996INS
TEMPO 0615/0617 3200 BR OVC006
FM061700 09007KT 9000 BR SCT010 BKN015 OVC030 QNH2991INS
FM062100 09009KT 9999 SCT015 OVC025 QNH2986INS
TEMPO 0621/0702 SCT020 OVC030
BECMG 0703/0705 VRB05KT 4800 BR BKN005 OVC010 QNH2993INS
TEMPO 0706/0712 0400 FG OVC002 T29/0620Z T19/0712Z FN20058

Example: see airport list